Eugenio de Castro, Brazil
Current Conditions -  °F | °C
As of 12:10 AM on Friday 31 Oct 2014 (Local Time) from SBSM Reporting Station
Broken Clouds Broken Clouds  
Wind Chill: 64°   Ceiling: 2500
Heat Index: 64°   Visibility: 6mi
Dew Point: 63°   Wind: 6mph
Humidity: 94%   Direction: 130°SE
Pressure: 29.85"   Gusts: NA
Location:  28.53°S, 54.15°W
Report Text: SBSM 310210Z 13005KT 9999 BKN025 18/17 Q1011
Loading
Personal Weather Stations






























Interactive Weather Map
Tropical Storm Tracking
New forecast layout! Learn more

10-Day Weather Forecast

Advertisements
Track Severe Weather on mobile